createdAt,value
2022-08-04T00:00:48.169Z,21.80
2022-08-04T00:03:24.200Z,21.70
2022-08-04T00:06:04.125Z,21.70
2022-08-04T00:08:44.613Z,21.70
2022-08-04T00:11:16.996Z,21.70
2022-08-04T00:13:59.829Z,21.80
2022-08-04T00:16:38.087Z,21.90
2022-08-04T00:19:18.104Z,21.80
2022-08-04T00:21:50.253Z,21.80
2022-08-04T00:24:20.482Z,21.60
2022-08-04T00:26:49.178Z,21.30
2022-08-04T00:29:17.623Z,21.20
2022-08-04T00:31:55.966Z,21.10
2022-08-04T00:34:29.135Z,21.00
2022-08-04T00:36:59.341Z,21.30
2022-08-04T00:39:28.696Z,21.20
2022-08-04T00:42:27.409Z,21.20
2022-08-04T00:45:13.992Z,21.10
2022-08-04T00:47:59.157Z,21.30
2022-08-04T00:50:38.905Z,21.20
2022-08-04T00:53:09.819Z,20.90
2022-08-04T00:56:05.677Z,20.60
2022-08-04T00:58:48.203Z,20.60
2022-08-04T01:01:30.130Z,20.70
2022-08-04T01:04:05.552Z,20.90
2022-08-04T01:06:40.843Z,20.90
2022-08-04T01:09:31.888Z,20.80
2022-08-04T01:12:19.727Z,20.90
2022-08-04T01:15:04.129Z,20.80
2022-08-04T01:17:45.246Z,20.70
2022-08-04T01:20:22.292Z,20.50
2022-08-04T01:23:28.200Z,20.30
2022-08-04T01:26:44.184Z,20.20
2022-08-04T01:29:15.800Z,20.30
2022-08-04T01:31:59.507Z,20.40
2022-08-04T01:34:31.298Z,20.40
2022-08-04T01:37:04.822Z,20.30
2022-08-04T01:39:43.149Z,20.30
2022-08-04T01:42:32.056Z,20.30
2022-08-04T01:45:06.229Z,20.10
2022-08-04T01:47:38.029Z,20.20
2022-08-04T01:50:08.885Z,20.20
2022-08-04T01:52:39.316Z,20.20
2022-08-04T01:55:10.414Z,20.10
2022-08-04T01:57:44.069Z,20.10
2022-08-04T02:00:17.513Z,20.10
2022-08-04T02:02:46.512Z,20.10
2022-08-04T02:05:18.043Z,20.10
2022-08-04T02:08:07.732Z,20.10
2022-08-04T02:10:49.200Z,20.00
2022-08-04T02:13:24.660Z,20.10
2022-08-04T02:16:05.195Z,20.10
2022-08-04T02:18:45.830Z,20.10
2022-08-04T02:21:17.002Z,20.10
2022-08-04T02:23:52.219Z,20.10
2022-08-04T02:26:23.077Z,20.20
2022-08-04T02:29:01.662Z,20.30
2022-08-04T02:31:33.982Z,20.30
2022-08-04T02:34:08.688Z,20.30
2022-08-04T02:36:40.473Z,20.30
2022-08-04T02:39:10.996Z,20.20
2022-08-04T02:41:41.106Z,20.20
2022-08-04T02:44:11.559Z,20.20
2022-08-04T02:46:44.770Z,20.10
2022-08-04T02:49:17.244Z,20.10
2022-08-04T02:51:48.978Z,20.20
2022-08-04T02:54:30.283Z,20.10
2022-08-04T02:57:04.427Z,20.10
2022-08-04T02:59:55.472Z,20.10
2022-08-04T03:02:35.963Z,20.10
2022-08-04T03:05:12.900Z,20.00
2022-08-04T03:08:08.872Z,20.00
2022-08-04T03:11:14.552Z,20.00
2022-08-04T03:14:12.878Z,20.00
2022-08-04T03:17:07.576Z,19.90
2022-08-04T03:20:05.401Z,19.90
2022-08-04T03:23:13.077Z,19.90
2022-08-04T03:26:27.491Z,20.00
2022-08-04T03:29:37.044Z,19.80
2022-08-04T03:32:50.187Z,19.80
2022-08-04T03:35:41.366Z,19.70
2022-08-04T03:38:51.432Z,19.70
2022-08-04T03:41:51.693Z,19.60
2022-08-04T03:45:04.960Z,19.50
2022-08-04T03:48:10.577Z,19.40
2022-08-04T03:51:34.900Z,19.40
2022-08-04T03:54:55.710Z,19.50
2022-08-04T03:58:08.032Z,19.40
2022-08-04T04:00:45.602Z,19.20
2022-08-04T04:03:42.410Z,19.20
2022-08-04T04:06:54.218Z,19.20
2022-08-04T04:09:56.954Z,19.30
2022-08-04T04:12:50.824Z,19.40
2022-08-04T04:15:50.192Z,19.40
2022-08-04T04:18:42.478Z,19.50
2022-08-04T04:21:31.605Z,19.50
2022-08-04T04:24:18.955Z,19.70
2022-08-04T04:27:00.190Z,19.70
2022-08-04T04:30:01.743Z,19.80
2022-08-04T04:32:44.830Z,19.90
2022-08-04T04:35:24.166Z,19.90
2022-08-04T04:38:08.731Z,20.20
2022-08-04T04:40:51.248Z,20.40
2022-08-04T04:43:50.787Z,20.50
2022-08-04T04:46:33.364Z,20.70
2022-08-04T04:49:10.058Z,20.90
2022-08-04T04:51:45.720Z,21.00
2022-08-04T04:54:34.458Z,20.90
2022-08-04T04:57:10.460Z,20.90
2022-08-04T04:59:46.773Z,20.90
2022-08-04T05:02:42.967Z,21.00
2022-08-04T05:05:28.797Z,21.20
2022-08-04T05:08:45.317Z,21.40
2022-08-04T05:11:40.909Z,21.60
2022-08-04T05:14:34.755Z,21.70
2022-08-04T05:17:11.898Z,21.80
2022-08-04T05:20:01.928Z,22.00
2022-08-04T05:22:36.440Z,22.20
2022-08-04T05:25:09.831Z,22.10
2022-08-04T05:27:42.685Z,22.20
2022-08-04T05:30:13.783Z,22.50
2022-08-04T05:32:50.041Z,22.70
2022-08-04T05:36:06.202Z,22.90
2022-08-04T05:38:32.689Z,23.10
2022-08-04T05:41:05.818Z,23.00
2022-08-04T05:43:37.453Z,23.20
2022-08-04T05:46:06.768Z,23.20
2022-08-04T05:48:36.884Z,23.50
2022-08-04T05:51:06.569Z,23.70
2022-08-04T05:53:36.422Z,24.10
2022-08-04T05:56:07.300Z,24.50
2022-08-04T05:58:37.999Z,24.70
2022-08-04T06:01:09.529Z,24.90
2022-08-04T06:03:39.905Z,25.00
2022-08-04T06:06:09.433Z,25.30
2022-08-04T06:08:37.748Z,25.70
2022-08-04T06:11:09.525Z,25.70
2022-08-04T06:13:49.158Z,25.90
2022-08-04T06:16:29.775Z,26.10
2022-08-04T06:20:02.999Z,26.40
2022-08-04T06:21:58.823Z,26.40
2022-08-04T06:24:30.822Z,26.50
2022-08-04T06:27:00.855Z,26.90
2022-08-04T06:29:36.638Z,27.00
2022-08-04T06:32:30.272Z,26.90
2022-08-04T06:35:03.642Z,27.10
2022-08-04T06:37:42.673Z,27.40
2022-08-04T06:40:30.633Z,27.70
2022-08-04T06:43:01.852Z,27.80
2022-08-04T06:45:34.735Z,28.20
2022-08-04T06:48:04.886Z,28.30
2022-08-04T06:51:25.591Z,28.70
2022-08-04T06:53:23.424Z,28.70
2022-08-04T06:55:52.970Z,28.40
2022-08-04T06:58:23.861Z,28.60
2022-08-04T07:00:55.685Z,28.80
2022-08-04T07:03:25.044Z,28.90
2022-08-04T07:05:54.182Z,29.20
2022-08-04T07:08:23.575Z,29.30
2022-08-04T07:10:54.389Z,29.50
2022-08-04T07:13:24.504Z,29.50
2022-08-04T07:15:57.185Z,30.00
2022-08-04T07:18:25.697Z,30.30
2022-08-04T07:20:54.573Z,30.40
2022-08-04T07:23:26.007Z,30.70
2022-08-04T07:26:11.695Z,31.20
2022-08-04T07:28:42.653Z,31.60
2022-08-04T07:31:33.452Z,31.70
2022-08-04T07:34:16.838Z,31.80
2022-08-04T07:36:52.771Z,32.60
2022-08-04T07:39:28.406Z,33.10
2022-08-04T07:42:01.492Z,33.70
2022-08-04T07:44:32.955Z,34.10
2022-08-04T07:47:05.784Z,34.60
2022-08-04T07:49:56.787Z,34.50
2022-08-04T07:52:23.685Z,35.00
2022-08-04T07:54:54.257Z,35.00
2022-08-04T07:57:41.210Z,34.90
2022-08-04T08:00:14.302Z,34.70
2022-08-04T08:02:46.832Z,34.70
2022-08-04T08:05:18.311Z,35.00
2022-08-04T08:07:50.853Z,34.70
2022-08-04T08:10:24.317Z,34.60
2022-08-04T08:12:53.810Z,34.40
2022-08-04T08:15:22.934Z,34.20
2022-08-04T08:17:58.264Z,33.90
2022-08-04T08:20:31.790Z,33.80
2022-08-04T08:23:02.934Z,33.80
2022-08-04T08:25:33.415Z,33.80
2022-08-04T08:28:04.097Z,33.80
2022-08-04T08:30:34.803Z,33.90
2022-08-04T08:33:07.130Z,34.20
2022-08-04T08:35:54.109Z,34.30
2022-08-04T08:38:44.415Z,35.00
2022-08-04T08:41:43.512Z,35.00
2022-08-04T08:44:37.634Z,35.40
2022-08-04T08:47:26.861Z,35.30
2022-08-04T08:50:11.596Z,34.80
2022-08-04T08:53:02.177Z,34.70
2022-08-04T08:55:43.856Z,35.20
2022-08-04T08:58:32.507Z,34.90
2022-08-04T09:01:11.321Z,34.40
2022-08-04T09:04:23.605Z,34.90
2022-08-04T09:07:25.875Z,34.70
2022-08-04T09:10:04.303Z,34.60
2022-08-04T09:12:41.474Z,34.40
2022-08-04T09:15:16.100Z,34.00
2022-08-04T09:17:49.015Z,33.60
2022-08-04T09:20:23.872Z,33.80
2022-08-04T09:23:01.101Z,33.50
2022-08-04T09:25:34.201Z,33.10
2022-08-04T09:28:09.464Z,32.80
2022-08-04T09:30:44.887Z,32.70
2022-08-04T09:33:44.957Z,33.00
2022-08-04T09:36:25.982Z,33.40
2022-08-04T09:39:07.617Z,33.50
2022-08-04T09:41:48.329Z,33.70
2022-08-04T09:44:50.906Z,33.60
2022-08-04T09:47:20.366Z,33.70
2022-08-04T09:49:56.980Z,33.30
2022-08-04T09:52:45.684Z,33.70
2022-08-04T09:55:29.299Z,34.20
2022-08-04T09:58:07.060Z,34.40
2022-08-04T10:00:41.653Z,34.30
2022-08-04T10:03:19.719Z,34.60
2022-08-04T10:06:04.179Z,34.30
2022-08-04T10:08:49.081Z,34.00
2022-08-04T10:11:32.658Z,33.90
2022-08-04T10:14:07.110Z,33.80
2022-08-04T10:16:47.092Z,34.00
2022-08-04T10:19:27.656Z,34.10
2022-08-04T10:22:30.001Z,34.60
2022-08-04T10:26:03.356Z,34.70
2022-08-04T10:28:06.374Z,35.00
2022-08-04T10:30:40.793Z,35.10
2022-08-04T10:33:13.622Z,35.60
2022-08-04T10:35:50.204Z,35.80
2022-08-04T10:38:27.124Z,36.20
2022-08-04T10:41:02.008Z,36.10
2022-08-04T10:43:44.022Z,36.00
2022-08-04T10:46:17.601Z,35.90
2022-08-04T10:48:51.543Z,36.10
2022-08-04T10:51:29.909Z,35.60
2022-08-04T10:54:01.930Z,36.20
2022-08-04T10:56:35.502Z,36.60
2022-08-04T10:59:11.501Z,36.90
2022-08-04T11:02:00.079Z,37.10
2022-08-04T11:04:42.381Z,37.00
2022-08-04T11:07:13.010Z,37.20
2022-08-04T11:09:43.239Z,37.40
2022-08-04T11:12:17.709Z,37.70
2022-08-04T11:14:52.511Z,37.70
2022-08-04T11:17:25.629Z,37.90
2022-08-04T11:20:18.666Z,38.60
2022-08-04T11:23:00.631Z,38.00
2022-08-04T11:25:41.388Z,38.30
2022-08-04T11:28:15.509Z,37.70
2022-08-04T11:30:55.015Z,38.20
2022-08-04T11:33:34.960Z,38.20
2022-08-04T11:36:15.626Z,38.30
2022-08-04T11:38:52.290Z,38.60
2022-08-04T11:41:27.744Z,38.40
2022-08-04T11:44:03.901Z,38.10
2022-08-04T11:46:43.312Z,37.70
2022-08-04T11:49:21.034Z,38.10
2022-08-04T11:51:51.461Z,38.50
2022-08-04T11:54:21.719Z,38.40
2022-08-04T11:56:50.285Z,38.00
2022-08-04T11:59:20.009Z,38.20
2022-08-04T12:02:02.148Z,38.90
2022-08-04T12:04:41.193Z,39.60
2022-08-04T12:07:33.711Z,39.20
2022-08-04T12:10:15.426Z,39.40
2022-08-04T12:12:52.506Z,38.20
2022-08-04T12:15:27.695Z,38.00
2022-08-04T12:18:08.757Z,38.60
2022-08-04T12:20:44.975Z,39.10
2022-08-04T12:23:22.879Z,39.20
2022-08-04T12:25:57.120Z,39.20
2022-08-04T12:28:52.423Z,39.30
2022-08-04T12:31:28.045Z,38.40
2022-08-04T12:34:04.595Z,37.70
2022-08-04T12:36:41.564Z,38.20
2022-08-04T12:39:13.756Z,38.20
2022-08-04T12:41:46.567Z,38.30
2022-08-04T12:44:36.592Z,37.70
2022-08-04T12:47:28.179Z,38.00
2022-08-04T12:50:02.054Z,38.10
2022-08-04T12:53:01.660Z,37.70
2022-08-04T12:55:29.798Z,37.60
2022-08-04T12:57:59.551Z,36.90
2022-08-04T13:00:34.191Z,36.90
2022-08-04T13:03:13.903Z,36.90
2022-08-04T13:05:49.181Z,36.50
2022-08-04T13:08:21.742Z,36.20
2022-08-04T13:10:55.293Z,35.90
2022-08-04T13:13:28.141Z,35.70
2022-08-04T13:15:59.022Z,35.70
2022-08-04T13:18:32.460Z,35.90
2022-08-04T13:21:19.903Z,35.90
2022-08-04T13:24:19.751Z,35.80
2022-08-04T13:26:55.400Z,36.00
2022-08-04T13:29:58.691Z,36.00
2022-08-04T13:32:23.542Z,36.00
2022-08-04T13:34:55.323Z,35.90
2022-08-04T13:37:27.881Z,35.80
2022-08-04T13:39:58.511Z,35.60
2022-08-04T13:42:30.078Z,35.40
2022-08-04T13:45:00.779Z,35.20
2022-08-04T13:47:35.407Z,35.00
2022-08-04T13:50:19.748Z,35.10
2022-08-04T13:52:53.954Z,35.20
2022-08-04T13:55:25.187Z,35.10
2022-08-04T13:57:59.352Z,34.90
2022-08-04T14:00:38.813Z,34.90
2022-08-04T14:03:23.791Z,34.80
2022-08-04T14:06:16.309Z,34.70
2022-08-04T14:08:55.233Z,34.50
2022-08-04T14:12:07.145Z,34.40
2022-08-04T14:14:27.471Z,34.30
2022-08-04T14:17:02.546Z,34.20
2022-08-04T14:19:49.028Z,34.20
2022-08-04T14:22:30.786Z,34.00
2022-08-04T14:25:04.135Z,33.90
2022-08-04T14:27:43.245Z,33.60
2022-08-04T14:30:27.065Z,33.80
2022-08-04T14:33:59.446Z,34.00
2022-08-04T14:36:03.809Z,34.30
2022-08-04T14:38:45.145Z,34.40
2022-08-04T14:41:15.853Z,34.60
2022-08-04T14:43:49.397Z,34.70
2022-08-04T14:46:19.716Z,34.90
2022-08-04T14:49:10.230Z,34.90
2022-08-04T14:51:42.077Z,35.00
2022-08-04T14:54:18.081Z,35.10
2022-08-04T14:56:55.916Z,35.20
2022-08-04T14:59:24.623Z,35.20
2022-08-04T15:02:00.663Z,34.90
2022-08-04T15:04:32.390Z,34.70
2022-08-04T15:07:04.586Z,34.50
2022-08-04T15:09:33.784Z,34.40
2022-08-04T15:12:05.466Z,34.30
2022-08-04T15:14:37.236Z,34.30
2022-08-04T15:17:29.463Z,34.20
2022-08-04T15:19:58.642Z,34.30
2022-08-04T15:22:27.973Z,34.20
2022-08-04T15:24:56.611Z,34.30
2022-08-04T15:27:29.861Z,34.30
2022-08-04T15:30:02.274Z,34.20
2022-08-04T15:32:32.320Z,34.20
2022-08-04T15:35:06.625Z,34.10
2022-08-04T15:37:44.983Z,34.10
2022-08-04T15:40:16.226Z,34.20
2022-08-04T15:42:49.896Z,34.30
2022-08-04T15:45:21.824Z,34.30
2022-08-04T15:48:34.368Z,34.30
2022-08-04T15:51:08.409Z,34.30
2022-08-04T15:54:23.307Z,34.20
2022-08-04T15:57:01.464Z,34.20
2022-08-04T16:00:11.082Z,34.10
2022-08-04T16:02:44.550Z,34.10
2022-08-04T16:05:37.132Z,34.00
2022-08-04T16:08:15.944Z,34.10
2022-08-04T16:10:47.007Z,34.00
2022-08-04T16:13:16.853Z,34.00
2022-08-04T16:15:52.009Z,34.10
2022-08-04T16:18:41.277Z,34.00
2022-08-04T16:21:21.264Z,34.00
2022-08-04T16:24:05.418Z,33.90
2022-08-04T16:26:54.351Z,33.90
2022-08-04T16:29:43.952Z,33.80
2022-08-04T16:32:16.591Z,33.70
2022-08-04T16:34:54.164Z,33.60
2022-08-04T16:37:33.148Z,33.60
2022-08-04T16:40:37.705Z,33.60
2022-08-04T16:43:09.831Z,33.50
2022-08-04T16:45:43.204Z,33.50
2022-08-04T16:48:14.459Z,33.40
2022-08-04T16:50:52.269Z,33.20
2022-08-04T16:53:52.671Z,33.20
2022-08-04T16:56:11.310Z,33.10
2022-08-04T16:58:54.440Z,32.90
2022-08-04T17:01:33.034Z,32.80
2022-08-04T17:04:08.039Z,32.70
2022-08-04T17:06:38.516Z,32.80
2022-08-04T17:09:11.119Z,32.70
2022-08-04T17:11:39.401Z,32.70
2022-08-04T17:14:08.219Z,32.60
2022-08-04T17:16:39.268Z,32.50
2022-08-04T17:19:23.823Z,32.40
2022-08-04T17:22:02.190Z,32.40
2022-08-04T17:24:32.622Z,32.30
2022-08-04T17:27:01.109Z,32.20
2022-08-04T17:29:44.171Z,32.10
2022-08-04T17:32:19.669Z,32.10
2022-08-04T17:34:51.057Z,32.10
2022-08-04T17:37:39.635Z,32.00
2022-08-04T17:40:22.520Z,32.00
2022-08-04T17:44:03.906Z,32.00
2022-08-04T17:46:31.394Z,31.90
2022-08-04T17:49:01.769Z,31.80
2022-08-04T17:52:05.208Z,31.80
2022-08-04T17:54:37.445Z,31.70
2022-08-04T17:57:19.672Z,31.70
2022-08-04T17:59:56.771Z,31.70
2022-08-04T18:02:32.195Z,31.60
2022-08-04T18:05:06.974Z,31.70
2022-08-04T18:10:51.709Z,31.50
2022-08-04T18:13:29.435Z,31.40
2022-08-04T18:16:21.888Z,31.30
2022-08-04T18:19:09.118Z,31.20
2022-08-04T18:21:46.692Z,31.10
2022-08-04T18:24:34.143Z,31.20
2022-08-04T18:27:17.940Z,31.20
2022-08-04T18:30:15.090Z,31.10
2022-08-04T18:32:35.684Z,31.10
2022-08-04T18:35:07.550Z,31.00
2022-08-04T18:38:05.207Z,30.90
2022-08-04T18:40:39.007Z,30.70
2022-08-04T18:43:18.514Z,30.60
2022-08-04T18:45:57.317Z,30.50
2022-08-04T18:48:36.738Z,30.40
2022-08-04T18:51:22.586Z,30.20
2022-08-04T18:53:54.984Z,29.80
2022-08-04T18:56:29.823Z,29.60
2022-08-04T18:59:17.243Z,29.30
2022-08-04T19:02:13.138Z,29.10
2022-08-04T19:04:36.976Z,28.80
2022-08-04T19:07:28.814Z,28.80
2022-08-04T19:09:58.621Z,28.80
2022-08-04T19:12:29.972Z,28.80
2022-08-04T19:15:08.082Z,28.80
2022-08-04T19:17:56.753Z,28.80
2022-08-04T19:20:26.775Z,28.60
2022-08-04T19:24:10.353Z,28.50
2022-08-04T19:28:37.463Z,28.40
2022-08-04T19:31:06.913Z,28.40
2022-08-04T19:33:58.223Z,28.30
2022-08-04T19:36:28.707Z,28.30
2022-08-04T19:38:58.598Z,28.20
2022-08-04T19:41:27.677Z,28.10
2022-08-04T19:43:57.319Z,28.10
2022-08-04T19:46:27.905Z,28.00
2022-08-04T19:49:00.341Z,27.90
2022-08-04T19:51:30.285Z,27.80
2022-08-04T19:54:03.782Z,27.60
2022-08-04T19:56:40.294Z,27.40
2022-08-04T19:59:11.481Z,27.30
2022-08-04T20:01:45.176Z,27.40
2022-08-04T20:04:14.881Z,27.40
2022-08-04T20:06:43.647Z,27.40
2022-08-04T20:09:24.732Z,27.30
2022-08-04T20:11:55.289Z,27.30
2022-08-04T20:14:32.282Z,27.40
2022-08-04T20:17:02.919Z,27.40
2022-08-04T20:19:31.792Z,27.40
2022-08-04T20:22:03.172Z,27.40
2022-08-04T20:24:39.123Z,27.40
2022-08-04T20:27:14.829Z,27.40
2022-08-04T20:29:55.637Z,27.40
2022-08-04T20:32:26.800Z,27.30
2022-08-04T20:34:57.415Z,27.40
2022-08-04T20:37:55.235Z,27.20
2022-08-04T20:40:15.888Z,27.00
2022-08-04T20:48:28.001Z,26.90
2022-08-04T20:50:56.406Z,26.70
2022-08-04T20:53:32.786Z,26.90
2022-08-04T20:56:19.094Z,26.90
2022-08-04T20:59:00.713Z,26.90
2022-08-04T21:01:31.190Z,26.80
2022-08-04T21:07:07.480Z,26.80
2022-08-04T21:09:50.074Z,26.80
2022-08-04T21:12:27.502Z,26.70
2022-08-04T21:15:01.183Z,26.70
2022-08-04T21:17:58.561Z,26.60
2022-08-04T21:20:32.385Z,26.60
2022-08-04T21:23:03.527Z,26.50
2022-08-04T21:25:42.710Z,26.50
2022-08-04T21:28:11.981Z,26.40
2022-08-04T21:30:54.576Z,26.30
2022-08-04T21:33:49.931Z,26.30
2022-08-04T21:36:19.493Z,26.40
2022-08-04T21:38:51.062Z,26.40
2022-08-04T21:41:25.054Z,26.30
2022-08-04T21:43:58.913Z,26.20
2022-08-04T21:46:27.600Z,26.30
2022-08-04T21:49:00.643Z,26.20
2022-08-04T21:51:57.824Z,26.20
2022-08-04T21:54:24.004Z,26.10
2022-08-04T21:56:57.124Z,25.90
2022-08-04T21:59:31.013Z,25.90
2022-08-04T22:04:53.072Z,26.00
2022-08-04T22:07:23.222Z,25.80
2022-08-04T22:10:02.257Z,25.80
2022-08-04T22:12:33.740Z,25.70
2022-08-04T22:15:22.934Z,25.70
2022-08-04T22:17:51.015Z,25.70
2022-08-04T22:20:31.208Z,25.80
2022-08-04T22:23:15.358Z,25.70
2022-08-04T22:25:44.944Z,25.40
2022-08-04T22:28:28.762Z,25.50
2022-08-04T22:30:58.215Z,25.60
2022-08-04T22:33:53.947Z,25.70
2022-08-04T22:36:17.728Z,25.50
2022-08-04T22:38:50.175Z,25.30
2022-08-04T22:41:33.668Z,25.30
2022-08-04T22:44:02.929Z,25.20
2022-08-04T22:46:31.429Z,25.10
2022-08-04T22:48:59.732Z,25.10
2022-08-04T22:51:30.176Z,24.90
2022-08-04T22:54:00.251Z,24.80
2022-08-04T22:56:37.915Z,24.90
2022-08-04T22:59:11.181Z,24.90
2022-08-04T23:01:57.855Z,24.90
2022-08-04T23:04:28.528Z,25.00
2022-08-04T23:06:58.705Z,24.80
2022-08-04T23:09:50.966Z,24.90
2022-08-04T23:12:26.297Z,25.00
2022-08-04T23:14:55.336Z,24.70
2022-08-04T23:17:24.051Z,23.90
2022-08-04T23:19:57.310Z,23.30
2022-08-04T23:22:41.738Z,23.20
2022-08-04T23:25:15.722Z,23.30
2022-08-04T23:27:50.448Z,23.50
2022-08-04T23:30:21.700Z,23.30
2022-08-04T23:32:53.154Z,23.30
2022-08-04T23:35:21.938Z,23.10
2022-08-04T23:37:57.592Z,23.10
2022-08-04T23:40:33.096Z,23.20
2022-08-04T23:43:11.994Z,23.10
2022-08-04T23:45:52.423Z,23.10
2022-08-04T23:48:34.244Z,23.10
2022-08-04T23:51:13.801Z,23.00
2022-08-04T23:54:02.225Z,23.00
2022-08-04T23:56:33.135Z,22.90
2022-08-04T23:59:04.115Z,22.90
